createdAt,value
2022-12-03T00:00:50.057Z,21.00
2022-12-03T00:03:19.734Z,21.00
2022-12-03T00:05:49.560Z,21.00
2022-12-03T00:08:19.353Z,21.00
2022-12-03T00:10:49.097Z,21.00
2022-12-03T00:13:18.786Z,21.00
2022-12-03T00:15:48.481Z,21.00
2022-12-03T00:18:18.141Z,21.10
2022-12-03T00:20:47.851Z,21.10
2022-12-03T00:23:17.475Z,21.10
2022-12-03T00:25:47.101Z,21.10
2022-12-03T00:28:16.752Z,21.20
2022-12-03T00:30:46.485Z,21.20
2022-12-03T00:33:16.165Z,21.20
2022-12-03T00:35:45.758Z,21.30
2022-12-03T00:38:15.359Z,21.30
2022-12-03T00:40:44.927Z,21.30
2022-12-03T00:43:14.648Z,21.40
2022-12-03T00:45:44.225Z,21.40
2022-12-03T00:48:13.843Z,21.40
2022-12-03T00:50:43.461Z,21.40
2022-12-03T00:53:13.067Z,21.50
2022-12-03T00:55:43.283Z,21.50
2022-12-03T00:58:12.981Z,21.60
2022-12-03T01:00:42.921Z,21.70
2022-12-03T01:03:12.756Z,21.70
2022-12-03T01:05:42.503Z,21.70
2022-12-03T01:08:12.276Z,21.80
2022-12-03T01:10:41.902Z,21.80
2022-12-03T01:13:11.567Z,21.90
2022-12-03T01:15:41.187Z,21.90
2022-12-03T01:18:10.852Z,21.90
2022-12-03T01:20:40.601Z,22.00
2022-12-03T01:23:10.184Z,22.00
2022-12-03T01:25:39.803Z,22.10
2022-12-03T01:28:09.441Z,22.10
2022-12-03T01:30:58.726Z,22.20
2022-12-03T01:33:28.433Z,22.20
2022-12-03T01:35:58.093Z,22.30
2022-12-03T01:38:27.716Z,22.30
2022-12-03T01:40:57.433Z,22.40
2022-12-03T01:43:27.105Z,22.50
2022-12-03T01:45:56.793Z,22.50
2022-12-03T01:48:26.450Z,22.60
2022-12-03T01:50:56.122Z,22.70
2022-12-03T01:53:25.797Z,22.70
2022-12-03T01:55:56.156Z,22.80
2022-12-03T01:58:30.626Z,22.80
2022-12-03T02:01:04.482Z,22.90
2022-12-03T02:03:34.176Z,23.00
2022-12-03T02:06:03.813Z,23.00
2022-12-03T02:08:37.051Z,23.10
2022-12-03T02:11:34.235Z,23.20
2022-12-03T02:14:11.423Z,23.20
2022-12-03T02:16:43.311Z,23.30
2022-12-03T02:19:27.037Z,23.40
2022-12-03T02:22:24.574Z,23.40
2022-12-03T02:25:11.847Z,23.50
2022-12-03T02:27:42.096Z,23.50
2022-12-03T02:30:14.244Z,23.70
2022-12-03T02:32:43.895Z,23.70
2022-12-03T02:35:19.386Z,23.80
2022-12-03T02:37:52.665Z,23.80
2022-12-03T02:40:26.563Z,23.90
2022-12-03T02:43:00.654Z,24.00
2022-12-03T02:45:36.842Z,24.00
2022-12-03T02:48:30.745Z,24.10
2022-12-03T02:51:03.440Z,24.20
2022-12-03T02:53:47.106Z,24.30
2022-12-03T02:56:21.363Z,24.30
2022-12-03T02:58:54.136Z,24.40
2022-12-03T03:01:24.529Z,24.50
2022-12-03T03:03:55.171Z,24.50
2022-12-03T03:06:25.397Z,24.60
2022-12-03T03:08:55.441Z,24.70
2022-12-03T03:11:25.691Z,24.70
2022-12-03T03:13:55.774Z,24.80
2022-12-03T03:16:25.747Z,24.80
2022-12-03T03:18:55.905Z,24.80
2022-12-03T03:21:25.870Z,24.90
2022-12-03T03:23:55.824Z,24.90
2022-12-03T03:26:25.862Z,25.00
2022-12-03T03:28:55.786Z,25.10
2022-12-03T03:31:26.794Z,25.20
2022-12-03T03:33:56.850Z,25.20
2022-12-03T03:36:28.099Z,25.30
2022-12-03T03:38:58.488Z,25.30
2022-12-03T03:41:30.044Z,25.40
2022-12-03T03:44:00.451Z,25.50
2022-12-03T03:46:31.606Z,25.50
2022-12-03T03:49:01.672Z,25.60
2022-12-03T03:51:32.374Z,25.60
2022-12-03T03:54:02.630Z,25.50
2022-12-03T03:56:34.601Z,25.60
2022-12-03T03:59:05.730Z,25.70
2022-12-03T04:01:36.153Z,25.70
2022-12-03T04:04:21.473Z,25.80
2022-12-03T04:06:51.385Z,25.90
2022-12-03T04:09:21.026Z,25.90
2022-12-03T04:12:10.255Z,26.00
2022-12-03T04:14:39.822Z,26.10
2022-12-03T04:17:09.397Z,26.10
2022-12-03T04:19:38.993Z,26.20
2022-12-03T04:22:28.171Z,26.30
2022-12-03T04:25:17.467Z,26.40
2022-12-03T04:28:07.253Z,26.40
2022-12-03T04:30:36.959Z,26.50
2022-12-03T04:33:26.262Z,26.60
2022-12-03T04:35:56.066Z,26.70
2022-12-03T04:38:25.721Z,26.80
2022-12-03T04:41:05.836Z,26.90
2022-12-03T04:43:56.540Z,26.90
2022-12-03T04:46:26.223Z,27.00
2022-12-03T04:48:55.899Z,27.10
2022-12-03T04:51:25.592Z,27.20
2022-12-03T04:53:55.296Z,27.30
2022-12-03T04:56:25.273Z,27.30
2022-12-03T04:58:55.679Z,27.40
2022-12-03T05:01:25.508Z,27.40
2022-12-03T05:03:55.567Z,27.50
2022-12-03T05:06:25.463Z,27.50
2022-12-03T05:08:55.186Z,27.60
2022-12-03T05:11:24.742Z,27.60
2022-12-03T05:13:54.558Z,27.60
2022-12-03T05:16:24.520Z,27.70
2022-12-03T05:18:54.135Z,27.70
2022-12-03T05:21:23.717Z,27.70
2022-12-03T05:23:53.480Z,27.70
2022-12-03T05:26:23.115Z,27.70
2022-12-03T05:28:52.693Z,27.70
2022-12-03T05:31:22.428Z,27.70
2022-12-03T05:33:52.166Z,27.70
2022-12-03T05:36:21.726Z,27.80
2022-12-03T05:38:51.424Z,27.80
2022-12-03T05:41:40.649Z,27.80
2022-12-03T05:44:10.260Z,27.90
2022-12-03T05:46:39.996Z,28.00
2022-12-03T05:49:09.630Z,28.10
2022-12-03T05:51:39.250Z,28.10
2022-12-03T05:54:08.859Z,28.20
2022-12-03T05:56:38.744Z,28.30
2022-12-03T05:59:09.237Z,28.30
2022-12-03T06:01:38.858Z,28.30
2022-12-03T06:04:08.774Z,28.40
2022-12-03T06:06:38.481Z,28.50
2022-12-03T06:09:08.572Z,28.50
2022-12-03T06:11:39.008Z,28.50
2022-12-03T06:14:08.694Z,28.50
2022-12-03T06:16:38.348Z,28.60
2022-12-03T06:19:07.977Z,28.60
2022-12-03T06:21:39.360Z,28.70
2022-12-03T06:24:09.100Z,28.70
2022-12-03T06:26:38.712Z,28.80
2022-12-03T06:29:08.355Z,28.80
2022-12-03T06:31:38.099Z,28.90
2022-12-03T06:34:07.759Z,28.90
2022-12-03T06:36:37.381Z,28.90
2022-12-03T06:39:07.062Z,28.90
2022-12-03T06:41:36.800Z,28.90
2022-12-03T06:44:06.639Z,29.00
2022-12-03T06:46:36.296Z,29.10
2022-12-03T06:49:06.012Z,29.10
2022-12-03T06:51:35.599Z,29.10
2022-12-03T06:54:06.150Z,29.10
2022-12-03T06:56:43.360Z,29.00
2022-12-03T06:59:15.980Z,29.00
2022-12-03T07:01:46.001Z,28.90
2022-12-03T07:04:16.251Z,28.90
2022-12-03T07:06:46.167Z,28.90
2022-12-03T07:09:18.772Z,28.90
2022-12-03T07:11:48.755Z,29.00
2022-12-03T07:14:18.676Z,29.00
2022-12-03T07:16:49.386Z,29.10
2022-12-03T07:19:19.272Z,29.20
2022-12-03T07:21:49.225Z,29.20
2022-12-03T07:24:19.370Z,29.30
2022-12-03T07:26:49.344Z,29.30
2022-12-03T07:29:19.316Z,29.30
2022-12-03T07:31:49.396Z,29.30
2022-12-03T07:34:19.367Z,29.20
2022-12-03T07:36:49.416Z,29.20
2022-12-03T07:39:19.464Z,29.20
2022-12-03T07:41:49.329Z,29.20
2022-12-03T07:44:19.316Z,29.20
2022-12-03T07:46:49.471Z,29.30
2022-12-03T07:49:19.451Z,29.30
2022-12-03T07:51:55.756Z,29.30
2022-12-03T07:54:26.450Z,29.30
2022-12-03T07:57:01.185Z,29.30
2022-12-03T07:59:32.250Z,29.30
2022-12-03T08:02:01.869Z,29.30
2022-12-03T08:04:31.834Z,29.30
2022-12-03T08:07:01.478Z,29.20
2022-12-03T08:09:31.306Z,29.20
2022-12-03T08:12:05.052Z,29.20
2022-12-03T08:14:34.693Z,29.20
2022-12-03T08:17:04.354Z,29.20
2022-12-03T08:19:34.535Z,29.20
2022-12-03T08:22:04.084Z,29.20
2022-12-03T08:24:33.677Z,29.20
2022-12-03T08:27:04.000Z,29.20
2022-12-03T08:29:34.064Z,29.20
2022-12-03T08:32:03.724Z,29.20
2022-12-03T08:34:42.086Z,29.10
2022-12-03T08:37:19.983Z,29.10
2022-12-03T08:39:51.304Z,29.10
2022-12-03T08:42:45.011Z,29.00
2022-12-03T08:45:42.056Z,29.00
2022-12-03T08:48:35.255Z,29.10
2022-12-03T08:51:28.767Z,29.10
2022-12-03T08:54:06.820Z,29.10
2022-12-03T08:56:39.074Z,29.00
2022-12-03T08:59:31.204Z,29.10
2022-12-03T09:02:02.298Z,29.00
2022-12-03T09:04:43.369Z,29.00
2022-12-03T09:07:13.195Z,29.10
2022-12-03T09:09:42.749Z,29.10
2022-12-03T09:12:12.296Z,29.00
2022-12-03T09:14:41.992Z,29.00
2022-12-03T09:17:11.606Z,29.00
2022-12-03T09:19:46.622Z,28.90
2022-12-03T09:22:17.003Z,28.80
2022-12-03T09:24:46.743Z,28.80
2022-12-03T09:27:16.509Z,28.70
2022-12-03T09:29:46.068Z,28.70
2022-12-03T09:32:18.544Z,28.60
2022-12-03T09:34:48.822Z,28.50
2022-12-03T09:37:18.337Z,28.50
2022-12-03T09:39:47.937Z,28.50
2022-12-03T09:42:19.217Z,28.40
2022-12-03T09:44:48.980Z,28.40
2022-12-03T09:47:18.948Z,28.40
2022-12-03T09:49:48.632Z,28.30
2022-12-03T09:52:25.838Z,28.30
2022-12-03T09:54:56.116Z,28.30
2022-12-03T09:57:26.234Z,28.30
2022-12-03T10:00:01.033Z,28.20
2022-12-03T10:02:32.851Z,28.20
2022-12-03T10:05:02.859Z,28.10
2022-12-03T10:07:33.166Z,28.00
2022-12-03T10:10:03.466Z,28.00
2022-12-03T10:12:33.482Z,28.00
2022-12-03T10:15:03.545Z,28.00
2022-12-03T10:17:34.065Z,27.90
2022-12-03T10:20:04.346Z,27.80
2022-12-03T10:22:38.770Z,27.80
2022-12-03T10:25:17.687Z,27.70
2022-12-03T10:28:00.461Z,27.60
2022-12-03T10:30:31.169Z,27.60
2022-12-03T10:33:04.254Z,27.50
2022-12-03T10:35:45.707Z,27.40
2022-12-03T10:38:24.874Z,27.40
2022-12-03T10:40:54.992Z,27.30
2022-12-03T10:43:27.357Z,27.30
2022-12-03T10:46:20.227Z,27.30
2022-12-03T10:49:12.080Z,27.20
2022-12-03T10:51:42.333Z,27.10
2022-12-03T10:54:25.357Z,27.00
2022-12-03T10:56:55.384Z,26.90
2022-12-03T10:59:27.848Z,26.90
2022-12-03T11:01:57.599Z,26.90
2022-12-03T11:04:37.750Z,26.80
2022-12-03T11:07:23.323Z,26.80
2022-12-03T11:10:00.477Z,26.70
2022-12-03T11:12:36.294Z,26.60
2022-12-03T11:15:08.197Z,26.60
2022-12-03T11:17:57.397Z,26.50
2022-12-03T11:21:05.961Z,26.40
2022-12-03T11:24:10.082Z,26.40
2022-12-03T11:27:18.929Z,26.30
2022-12-03T11:29:55.211Z,26.20
2022-12-03T11:33:01.575Z,26.20
2022-12-03T11:35:39.688Z,26.10
2022-12-03T11:38:53.411Z,26.10
2022-12-03T11:42:02.641Z,26.00
2022-12-03T11:44:35.367Z,25.90
2022-12-03T11:47:16.069Z,25.90
2022-12-03T11:49:49.548Z,25.80
2022-12-03T11:52:32.779Z,25.80
2022-12-03T11:55:07.380Z,25.80
2022-12-03T11:57:40.217Z,25.70
2022-12-03T12:00:23.310Z,25.70
2022-12-03T12:02:57.011Z,25.70
2022-12-03T12:05:35.763Z,25.60
2022-12-03T12:08:06.211Z,25.60
2022-12-03T12:10:50.782Z,25.50
2022-12-03T12:13:57.165Z,25.50
2022-12-03T12:16:53.919Z,25.50
2022-12-03T12:19:47.324Z,25.40
2022-12-03T12:22:32.425Z,25.40
2022-12-03T12:25:06.775Z,25.30
2022-12-03T12:27:46.885Z,25.30
2022-12-03T12:30:23.328Z,25.30
2022-12-03T12:33:19.126Z,25.30
2022-12-03T12:35:49.041Z,25.20
2022-12-03T12:38:21.971Z,25.30
2022-12-03T12:40:52.668Z,25.20
2022-12-03T12:43:31.189Z,25.20
2022-12-03T12:49:11.049Z,25.20
2022-12-03T12:51:47.310Z,25.10
2022-12-03T12:54:18.988Z,25.10
2022-12-03T12:57:09.856Z,25.10
2022-12-03T12:59:39.488Z,25.10
2022-12-03T13:02:40.324Z,25.00
2022-12-03T13:05:13.948Z,25.00
2022-12-03T13:07:45.888Z,24.90
2022-12-03T13:10:39.133Z,24.90
2022-12-03T13:13:25.482Z,24.90
2022-12-03T13:16:34.019Z,24.80
2022-12-03T13:19:04.494Z,24.80
2022-12-03T13:21:46.595Z,24.80
2022-12-03T13:24:40.098Z,24.80
2022-12-03T13:27:34.468Z,24.70
2022-12-03T13:30:18.939Z,24.70
2022-12-03T13:32:48.776Z,24.70
2022-12-03T13:35:41.126Z,24.70
2022-12-03T13:38:18.805Z,24.70
2022-12-03T13:40:51.856Z,24.70
2022-12-03T13:43:22.269Z,24.60
2022-12-03T13:45:55.828Z,24.50
2022-12-03T13:48:32.846Z,24.60
2022-12-03T13:51:15.570Z,24.50
2022-12-03T13:53:45.459Z,24.50
2022-12-03T13:56:33.392Z,24.50
2022-12-03T13:59:03.138Z,24.40
2022-12-03T14:01:33.154Z,24.40
2022-12-03T14:04:02.891Z,24.40
2022-12-03T14:06:32.788Z,24.30
2022-12-03T14:09:03.526Z,24.30
2022-12-03T14:11:52.718Z,24.30
2022-12-03T14:14:22.522Z,24.30
2022-12-03T14:16:58.175Z,24.30
2022-12-03T14:19:29.486Z,24.30
2022-12-03T14:21:59.137Z,24.20
2022-12-03T14:24:28.957Z,24.20
2022-12-03T14:26:58.512Z,24.20
2022-12-03T14:29:28.110Z,24.10
2022-12-03T14:31:57.684Z,24.10
2022-12-03T14:34:27.433Z,24.10
2022-12-03T14:36:57.255Z,24.00
2022-12-03T14:39:26.900Z,24.00
2022-12-03T14:42:16.093Z,24.00
2022-12-03T14:44:51.273Z,24.00
2022-12-03T14:47:24.272Z,23.90
2022-12-03T14:49:54.715Z,24.00
2022-12-03T14:52:24.408Z,23.90
2022-12-03T14:54:54.086Z,23.90
2022-12-03T14:57:23.664Z,23.90
2022-12-03T14:59:53.459Z,23.90
2022-12-03T15:02:23.302Z,23.90
2022-12-03T15:04:53.004Z,23.90
2022-12-03T15:07:22.626Z,23.90
2022-12-03T15:09:53.367Z,23.80
2022-12-03T15:12:23.315Z,23.80
2022-12-03T15:14:52.919Z,23.70
2022-12-03T15:17:31.228Z,23.70
2022-12-03T15:20:01.515Z,23.70
2022-12-03T15:22:31.098Z,23.70
2022-12-03T15:25:00.722Z,23.70
2022-12-03T15:27:30.340Z,23.70
2022-12-03T15:29:59.951Z,23.60
2022-12-03T15:32:29.540Z,23.60
2022-12-03T15:34:59.064Z,23.60
2022-12-03T15:37:29.794Z,23.60
2022-12-03T15:39:59.612Z,23.50
2022-12-03T15:42:31.408Z,23.50
2022-12-03T15:45:01.001Z,23.50
2022-12-03T15:47:30.646Z,23.50
2022-12-03T15:50:00.341Z,23.50
2022-12-03T15:52:29.871Z,23.50
2022-12-03T15:54:59.540Z,23.40
2022-12-03T15:57:29.332Z,23.40
2022-12-03T15:59:58.999Z,23.40
2022-12-03T16:02:35.243Z,23.40
2022-12-03T16:05:06.378Z,23.40
2022-12-03T16:07:36.033Z,23.40
2022-12-03T16:10:09.141Z,23.30
2022-12-03T16:12:39.109Z,23.40
2022-12-03T16:15:09.351Z,23.40
2022-12-03T16:17:39.287Z,23.30
2022-12-03T16:20:09.946Z,23.30
2022-12-03T16:22:40.016Z,23.30
2022-12-03T16:25:10.156Z,23.20
2022-12-03T16:27:40.132Z,23.20
2022-12-03T16:30:10.658Z,23.30
2022-12-03T16:32:40.973Z,23.20
2022-12-03T16:35:11.303Z,23.20
2022-12-03T16:37:41.193Z,23.20
2022-12-03T16:40:11.664Z,23.20
2022-12-03T16:42:41.790Z,23.20
2022-12-03T16:45:31.788Z,23.10
2022-12-03T16:48:02.870Z,23.10
2022-12-03T16:50:32.856Z,23.10
2022-12-03T16:53:02.874Z,23.10
2022-12-03T16:55:32.952Z,23.10
2022-12-03T16:58:02.861Z,23.10
2022-12-03T17:00:32.812Z,23.00
2022-12-03T17:03:02.860Z,23.00
2022-12-03T17:05:32.823Z,23.00
2022-12-03T17:08:02.892Z,22.90
2022-12-03T17:10:32.987Z,22.90
2022-12-03T17:13:10.512Z,22.90
2022-12-03T17:15:41.407Z,22.80
2022-12-03T17:18:12.406Z,22.80
2022-12-03T17:20:41.984Z,22.80
2022-12-03T17:23:11.621Z,22.80
2022-12-03T17:25:41.276Z,22.80
2022-12-03T17:28:10.815Z,22.80
2022-12-03T17:30:40.439Z,22.80
2022-12-03T17:33:10.038Z,22.80
2022-12-03T17:35:39.656Z,22.80
2022-12-03T17:38:10.857Z,22.80
2022-12-03T17:40:40.600Z,22.80
2022-12-03T17:43:10.137Z,22.80
2022-12-03T17:45:40.026Z,22.80
2022-12-03T17:48:10.171Z,22.80
2022-12-03T17:50:39.838Z,22.80
2022-12-03T17:53:12.080Z,22.70
2022-12-03T17:55:44.955Z,22.80
2022-12-03T17:58:15.073Z,22.80
2022-12-03T18:00:45.410Z,22.80
2022-12-03T18:03:15.001Z,22.80
2022-12-03T18:05:44.568Z,22.80
2022-12-03T18:08:14.124Z,22.80
2022-12-03T18:10:43.762Z,22.70
2022-12-03T18:13:13.671Z,22.70
2022-12-03T18:15:43.623Z,22.70
2022-12-03T18:18:14.112Z,22.70
2022-12-03T18:20:44.196Z,22.70
2022-12-03T18:23:14.705Z,22.70
2022-12-03T18:25:45.000Z,22.70
2022-12-03T18:28:15.025Z,22.70
2022-12-03T18:30:50.643Z,22.60
2022-12-03T18:33:23.154Z,22.60
2022-12-03T18:35:56.086Z,22.60
2022-12-03T18:38:29.456Z,22.60
2022-12-03T18:41:00.019Z,22.60
2022-12-03T18:43:30.666Z,22.60
2022-12-03T18:46:00.554Z,22.60
2022-12-03T18:48:30.552Z,22.50
2022-12-03T18:51:00.562Z,22.50
2022-12-03T18:53:30.515Z,22.60
2022-12-03T18:56:00.641Z,22.50
2022-12-03T18:58:30.579Z,22.50
2022-12-03T19:01:00.564Z,22.50
2022-12-03T19:03:30.540Z,22.50
2022-12-03T19:06:01.178Z,22.50
2022-12-03T19:08:31.137Z,22.50
2022-12-03T19:11:02.562Z,22.50
2022-12-03T19:13:32.112Z,22.50
2022-12-03T19:16:04.856Z,22.40
2022-12-03T19:18:34.558Z,22.40
2022-12-03T19:21:12.811Z,22.40
2022-12-03T19:23:47.317Z,22.40
2022-12-03T19:26:28.775Z,22.40
2022-12-03T19:28:58.451Z,22.40
2022-12-03T19:31:28.005Z,22.40
2022-12-03T19:33:57.567Z,22.30
2022-12-03T19:36:33.869Z,22.40
2022-12-03T19:39:03.798Z,22.30
2022-12-03T19:41:33.421Z,22.30
2022-12-03T19:44:06.429Z,22.30
2022-12-03T19:46:40.209Z,22.30
2022-12-03T19:49:10.216Z,22.30
2022-12-03T19:51:40.093Z,22.30
2022-12-03T19:54:12.530Z,22.30
2022-12-03T19:56:42.236Z,22.30
2022-12-03T19:59:14.888Z,22.20
2022-12-03T20:01:44.937Z,22.20
2022-12-03T20:04:15.308Z,22.20
2022-12-03T20:06:47.037Z,22.20
2022-12-03T20:09:19.449Z,22.20
2022-12-03T20:11:53.654Z,22.20
2022-12-03T20:14:25.737Z,22.20
2022-12-03T20:16:55.807Z,22.20
2022-12-03T20:19:26.021Z,22.20
2022-12-03T20:22:02.091Z,22.10
2022-12-03T20:24:32.698Z,22.10
2022-12-03T20:27:02.565Z,22.10
2022-12-03T20:29:32.603Z,22.10
2022-12-03T20:32:02.852Z,22.10
2022-12-03T20:34:32.851Z,22.10
2022-12-03T20:37:02.749Z,22.10
2022-12-03T20:39:32.717Z,22.10
2022-12-03T20:42:02.603Z,22.10
2022-12-03T20:44:32.517Z,22.10
2022-12-03T20:47:02.559Z,22.10
2022-12-03T20:49:32.411Z,22.10
2022-12-03T20:52:04.543Z,22.10
2022-12-03T20:54:34.855Z,22.00
2022-12-03T20:57:05.033Z,22.10
2022-12-03T20:59:35.016Z,22.00
2022-12-03T21:02:05.132Z,22.00
2022-12-03T21:04:35.113Z,22.00
2022-12-03T21:07:05.242Z,22.00
2022-12-03T21:09:35.212Z,22.00
2022-12-03T21:12:06.116Z,22.00
2022-12-03T21:14:37.347Z,22.00
2022-12-03T21:17:08.714Z,22.00
2022-12-03T21:19:39.602Z,21.90
2022-12-03T21:22:10.082Z,22.00
2022-12-03T21:24:40.264Z,21.90
2022-12-03T21:27:10.249Z,21.90
2022-12-03T21:29:40.573Z,21.90
2022-12-03T21:32:10.540Z,21.90
2022-12-03T21:34:40.829Z,21.90
2022-12-03T21:37:10.697Z,21.90
2022-12-03T21:39:40.758Z,21.90
2022-12-03T21:42:34.947Z,21.90
2022-12-03T21:45:00.635Z,21.90
2022-12-03T21:47:36.640Z,21.90
2022-12-03T21:50:09.551Z,21.80
2022-12-03T21:52:39.507Z,21.80
2022-12-03T21:55:09.738Z,21.80
2022-12-03T21:57:39.971Z,21.80
2022-12-03T22:00:11.259Z,21.80
2022-12-03T22:02:42.349Z,21.80
2022-12-03T22:05:13.165Z,21.80
2022-12-03T22:07:43.341Z,21.80
2022-12-03T22:10:14.685Z,21.80
2022-12-03T22:12:45.274Z,21.80
2022-12-03T22:15:18.877Z,21.80
2022-12-03T22:17:49.827Z,21.80
2022-12-03T22:20:19.991Z,21.80
2022-12-03T22:22:49.971Z,21.80
2022-12-03T22:25:19.971Z,21.70
2022-12-03T22:27:49.896Z,21.80
2022-12-03T22:30:20.022Z,21.70
2022-12-03T22:32:49.964Z,21.70
2022-12-03T22:35:19.865Z,21.70
2022-12-03T22:37:49.815Z,21.70
2022-12-03T22:40:19.843Z,21.70
2022-12-03T22:42:51.110Z,21.70
2022-12-03T22:45:21.272Z,21.70
2022-12-03T22:47:51.186Z,21.70
2022-12-03T22:50:21.136Z,21.70
2022-12-03T22:52:51.134Z,21.70
2022-12-03T22:55:21.098Z,21.70
2022-12-03T22:57:50.976Z,21.70
2022-12-03T23:00:32.258Z,21.60
2022-12-03T23:03:02.581Z,21.60
2022-12-03T23:05:38.582Z,21.60
2022-12-03T23:08:11.018Z,21.60
2022-12-03T23:10:43.421Z,21.50
2022-12-03T23:13:17.435Z,21.50
2022-12-03T23:15:54.666Z,21.40
2022-12-03T23:18:24.242Z,21.40
2022-12-03T23:20:57.307Z,21.40
2022-12-03T23:23:28.813Z,21.40
2022-12-03T23:26:06.878Z,21.40
2022-12-03T23:28:37.436Z,21.40
2022-12-03T23:31:08.355Z,21.40
2022-12-03T23:33:38.717Z,21.40
2022-12-03T23:36:09.077Z,21.40
2022-12-03T23:38:38.630Z,21.40
2022-12-03T23:41:13.893Z,21.40
2022-12-03T23:43:44.154Z,21.40
2022-12-03T23:46:18.589Z,21.40
2022-12-03T23:48:48.401Z,21.40
2022-12-03T23:51:20.917Z,21.40
2022-12-03T23:53:50.523Z,21.40
2022-12-03T23:56:26.430Z,21.40
2022-12-03T23:58:56.274Z,21.40
